sensor_id;sensor_type;location;lat;lon;timestamp;temperature;humidity
23746;DHT22;12053;48.878;9.632;2023-11-19T00:02:10;6.60;99.90
23746;DHT22;12053;48.878;9.632;2023-11-19T00:04:38;6.70;99.90
23746;DHT22;12053;48.878;9.632;2023-11-19T00:07:07;6.70;99.90
23746;DHT22;12053;48.878;9.632;2023-11-19T00:09:36;6.80;99.90
23746;DHT22;12053;48.878;9.632;2023-11-19T00:12:04;6.80;99.90
23746;DHT22;12053;48.878;9.632;2023-11-19T00:14:31;6.80;99.90
23746;DHT22;12053;48.878;9.632;2023-11-19T00:16:58;6.80;99.90
23746;DHT22;12053;48.878;9.632;2023-11-19T00:19:25;6.80;99.90
23746;DHT22;12053;48.878;9.632;2023-11-19T00:21:53;6.90;99.90
23746;DHT22;12053;48.878;9.632;2023-11-19T00:24:19;7.00;99.90
23746;DHT22;12053;48.878;9.632;2023-11-19T00:26:47;7.10;99.90
23746;DHT22;12053;48.878;9.632;2023-11-19T00:29:14;7.10;99.90
23746;DHT22;12053;48.878;9.632;2023-11-19T00:31:41;7.20;99.90
23746;DHT22;12053;48.878;9.632;2023-11-19T00:34:08;7.20;99.90
23746;DHT22;12053;48.878;9.632;2023-11-19T00:36:35;7.30;99.90
23746;DHT22;12053;48.878;9.632;2023-11-19T00:39:02;7.20;99.90
23746;DHT22;12053;48.878;9.632;2023-11-19T00:41:29;7.20;99.90
23746;DHT22;12053;48.878;9.632;2023-11-19T00:43:56;7.20;99.90
23746;DHT22;12053;48.878;9.632;2023-11-19T00:46:23;7.20;99.90
23746;DHT22;12053;48.878;9.632;2023-11-19T00:48:50;7.30;99.90
23746;DHT22;12053;48.878;9.632;2023-11-19T00:51:17;7.40;99.90
23746;DHT22;12053;48.878;9.632;2023-11-19T00:53:45;7.40;99.90
23746;DHT22;12053;48.878;9.632;2023-11-19T00:56:12;7.40;99.90
23746;DHT22;12053;48.878;9.632;2023-11-19T00:58:39;7.40;99.90
23746;DHT22;12053;48.878;9.632;2023-11-19T01:01:06;7.50;99.90
23746;DHT22;12053;48.878;9.632;2023-11-19T01:03:33;7.50;99.90
23746;DHT22;12053;48.878;9.632;2023-11-19T01:06:00;7.50;99.90
23746;DHT22;12053;48.878;9.632;2023-11-19T01:08:29;7.50;99.90
23746;DHT22;12053;48.878;9.632;2023-11-19T01:10:56;7.60;99.90
23746;DHT22;12053;48.878;9.632;2023-11-19T01:13:23;7.60;99.90
23746;DHT22;12053;48.878;9.632;2023-11-19T01:15:49;7.60;99.90
23746;DHT22;12053;48.878;9.632;2023-11-19T01:18:16;7.70;99.90
23746;DHT22;12053;48.878;9.632;2023-11-19T01:20:43;7.70;99.90
23746;DHT22;12053;48.878;9.632;2023-11-19T01:23:10;7.70;99.90
23746;DHT22;12053;48.878;9.632;2023-11-19T01:25:37;7.70;99.90
23746;DHT22;12053;48.878;9.632;2023-11-19T01:28:04;7.70;99.90
23746;DHT22;12053;48.878;9.632;2023-11-19T01:30:31;7.70;99.90
23746;DHT22;12053;48.878;9.632;2023-11-19T01:32:58;7.70;99.90
23746;DHT22;12053;48.878;9.632;2023-11-19T01:35:25;7.80;99.90
23746;DHT22;12053;48.878;9.632;2023-11-19T01:37:53;7.80;99.90
23746;DHT22;12053;48.878;9.632;2023-11-19T01:40:21;7.80;99.90
23746;DHT22;12053;48.878;9.632;2023-11-19T01:42:49;7.80;99.90
23746;DHT22;12053;48.878;9.632;2023-11-19T01:45:26;7.80;99.90
23746;DHT22;12053;48.878;9.632;2023-11-19T01:47:55;7.80;99.90
23746;DHT22;12053;48.878;9.632;2023-11-19T01:50:23;7.90;99.90
23746;DHT22;12053;48.878;9.632;2023-11-19T01:52:53;7.90;99.90
23746;DHT22;12053;48.878;9.632;2023-11-19T01:55:21;7.90;99.90
23746;DHT22;12053;48.878;9.632;2023-11-19T01:57:49;7.90;99.90
23746;DHT22;12053;48.878;9.632;2023-11-19T02:00:17;7.90;99.90
23746;DHT22;12053;48.878;9.632;2023-11-19T02:02:48;7.90;99.90
23746;DHT22;12053;48.878;9.632;2023-11-19T02:05:15;7.90;99.90
23746;DHT22;12053;48.878;9.632;2023-11-19T02:07:43;7.90;99.90
23746;DHT22;12053;48.878;9.632;2023-11-19T02:10:10;7.90;99.90
23746;DHT22;12053;48.878;9.632;2023-11-19T02:12:41;8.00;99.90
23746;DHT22;12053;48.878;9.632;2023-11-19T02:15:10;8.00;99.90
23746;DHT22;12053;48.878;9.632;2023-11-19T02:17:37;8.00;99.90
23746;DHT22;12053;48.878;9.632;2023-11-19T02:20:05;8.00;99.90
23746;DHT22;12053;48.878;9.632;2023-11-19T02:22:38;8.00;99.90
23746;DHT22;12053;48.878;9.632;2023-11-19T02:25:07;8.10;99.90
23746;DHT22;12053;48.878;9.632;2023-11-19T02:27:54;8.10;99.90
23746;DHT22;12053;48.878;9.632;2023-11-19T02:30:23;8.10;99.90
23746;DHT22;12053;48.878;9.632;2023-11-19T02:32:54;8.10;99.90
23746;DHT22;12053;48.878;9.632;2023-11-19T02:35:27;8.10;99.90
23746;DHT22;12053;48.878;9.632;2023-11-19T02:37:55;8.10;99.90
23746;DHT22;12053;48.878;9.632;2023-11-19T02:40:22;8.10;99.90
23746;DHT22;12053;48.878;9.632;2023-11-19T02:42:49;8.10;99.90
23746;DHT22;12053;48.878;9.632;2023-11-19T02:45:16;8.10;99.90
23746;DHT22;12053;48.878;9.632;2023-11-19T02:47:44;8.10;99.90
23746;DHT22;12053;48.878;9.632;2023-11-19T02:50:11;8.10;99.90
23746;DHT22;12053;48.878;9.632;2023-11-19T02:52:41;8.10;99.90
23746;DHT22;12053;48.878;9.632;2023-11-19T02:55:10;8.10;99.90
23746;DHT22;12053;48.878;9.632;2023-11-19T02:57:39;8.10;99.90
23746;DHT22;12053;48.878;9.632;2023-11-19T03:00:15;8.20;99.90
23746;DHT22;12053;48.878;9.632;2023-11-19T03:02:43;8.20;99.90
23746;DHT22;12053;48.878;9.632;2023-11-19T03:05:15;8.20;99.90
23746;DHT22;12053;48.878;9.632;2023-11-19T03:07:43;8.20;99.90
23746;DHT22;12053;48.878;9.632;2023-11-19T03:10:11;8.20;99.90
23746;DHT22;12053;48.878;9.632;2023-11-19T03:12:43;8.20;99.90
23746;DHT22;12053;48.878;9.632;2023-11-19T03:15:10;8.20;99.90
23746;DHT22;12053;48.878;9.632;2023-11-19T03:17:41;8.20;99.90
23746;DHT22;12053;48.878;9.632;2023-11-19T03:20:11;8.20;99.90
23746;DHT22;12053;48.878;9.632;2023-11-19T03:22:42;8.30;99.90
23746;DHT22;12053;48.878;9.632;2023-11-19T03:25:09;8.30;99.90
23746;DHT22;12053;48.878;9.632;2023-11-19T03:27:37;8.30;99.90
23746;DHT22;12053;48.878;9.632;2023-11-19T03:30:08;8.30;99.90
23746;DHT22;12053;48.878;9.632;2023-11-19T03:32:38;8.30;99.90
23746;DHT22;12053;48.878;9.632;2023-11-19T03:35:06;8.30;99.90
23746;DHT22;12053;48.878;9.632;2023-11-19T03:37:36;8.30;99.90
23746;DHT22;12053;48.878;9.632;2023-11-19T03:40:03;8.30;99.90
23746;DHT22;12053;48.878;9.632;2023-11-19T03:42:31;8.30;99.90
23746;DHT22;12053;48.878;9.632;2023-11-19T03:44:58;8.40;99.90
23746;DHT22;12053;48.878;9.632;2023-11-19T03:47:25;8.30;99.90
23746;DHT22;12053;48.878;9.632;2023-11-19T03:49:52;8.30;99.90
23746;DHT22;12053;48.878;9.632;2023-11-19T03:52:19;8.30;99.90
23746;DHT22;12053;48.878;9.632;2023-11-19T03:54:47;8.30;99.90
23746;DHT22;12053;48.878;9.632;2023-11-19T03:57:14;8.30;99.90
23746;DHT22;12053;48.878;9.632;2023-11-19T03:59:42;8.30;99.90
23746;DHT22;12053;48.878;9.632;2023-11-19T04:02:09;8.40;99.90
23746;DHT22;12053;48.878;9.632;2023-11-19T04:04:36;8.40;99.90
23746;DHT22;12053;48.878;9.632;2023-11-19T04:07:04;8.40;99.90
23746;DHT22;12053;48.878;9.632;2023-11-19T04:09:31;8.30;99.90
23746;DHT22;12053;48.878;9.632;2023-11-19T04:12:00;8.30;99.90
23746;DHT22;12053;48.878;9.632;2023-11-19T04:14:27;8.40;99.90
23746;DHT22;12053;48.878;9.632;2023-11-19T04:16:54;8.30;99.90
23746;DHT22;12053;48.878;9.632;2023-11-19T04:19:21;8.30;99.90
23746;DHT22;12053;48.878;9.632;2023-11-19T04:21:48;8.40;99.90
23746;DHT22;12053;48.878;9.632;2023-11-19T04:24:15;8.40;99.90
23746;DHT22;12053;48.878;9.632;2023-11-19T04:26:43;8.40;99.90
23746;DHT22;12053;48.878;9.632;2023-11-19T04:29:13;8.40;99.90
23746;DHT22;12053;48.878;9.632;2023-11-19T04:31:40;8.40;99.90
23746;DHT22;12053;48.878;9.632;2023-11-19T04:34:07;8.40;99.90
23746;DHT22;12053;48.878;9.632;2023-11-19T04:36:34;8.50;99.90
23746;DHT22;12053;48.878;9.632;2023-11-19T04:39:01;8.50;99.90
23746;DHT22;12053;48.878;9.632;2023-11-19T04:41:28;8.50;99.90
23746;DHT22;12053;48.878;9.632;2023-11-19T04:43:56;8.60;99.90
23746;DHT22;12053;48.878;9.632;2023-11-19T04:46:22;8.60;99.90
23746;DHT22;12053;48.878;9.632;2023-11-19T04:48:51;8.60;99.90
23746;DHT22;12053;48.878;9.632;2023-11-19T04:51:18;8.70;99.90
23746;DHT22;12053;48.878;9.632;2023-11-19T04:53:44;8.70;99.90
23746;DHT22;12053;48.878;9.632;2023-11-19T04:56:12;8.70;99.90
23746;DHT22;12053;48.878;9.632;2023-11-19T04:58:40;8.80;99.90
23746;DHT22;12053;48.878;9.632;2023-11-19T05:01:14;8.80;99.90
23746;DHT22;12053;48.878;9.632;2023-11-19T05:03:42;8.80;99.90
23746;DHT22;12053;48.878;9.632;2023-11-19T05:06:09;8.80;99.90
23746;DHT22;12053;48.878;9.632;2023-11-19T05:08:36;8.80;99.90
23746;DHT22;12053;48.878;9.632;2023-11-19T05:11:03;8.90;99.90
23746;DHT22;12053;48.878;9.632;2023-11-19T05:13:30;8.90;99.90
23746;DHT22;12053;48.878;9.632;2023-11-19T05:15:57;8.90;99.90
23746;DHT22;12053;48.878;9.632;2023-11-19T05:18:24;9.00;99.90
23746;DHT22;12053;48.878;9.632;2023-11-19T05:20:51;9.00;99.90
23746;DHT22;12053;48.878;9.632;2023-11-19T05:23:18;9.00;99.90
23746;DHT22;12053;48.878;9.632;2023-11-19T05:25:47;9.00;99.90
23746;DHT22;12053;48.878;9.632;2023-11-19T05:28:14;9.00;99.90
23746;DHT22;12053;48.878;9.632;2023-11-19T05:30:41;9.00;99.90
23746;DHT22;12053;48.878;9.632;2023-11-19T05:33:08;9.00;99.90
23746;DHT22;12053;48.878;9.632;2023-11-19T05:35:35;9.10;99.90
23746;DHT22;12053;48.878;9.632;2023-11-19T05:38:02;9.10;99.90
23746;DHT22;12053;48.878;9.632;2023-11-19T05:40:30;9.10;99.90
23746;DHT22;12053;48.878;9.632;2023-11-19T05:42:57;9.10;99.90
23746;DHT22;12053;48.878;9.632;2023-11-19T05:45:23;9.10;99.90
23746;DHT22;12053;48.878;9.632;2023-11-19T05:47:50;9.10;99.90
23746;DHT22;12053;48.878;9.632;2023-11-19T05:50:18;9.10;99.90
23746;DHT22;12053;48.878;9.632;2023-11-19T05:52:46;9.20;99.90
23746;DHT22;12053;48.878;9.632;2023-11-19T05:55:13;9.20;99.90
23746;DHT22;12053;48.878;9.632;2023-11-19T05:57:40;9.30;99.90
23746;DHT22;12053;48.878;9.632;2023-11-19T06:00:11;9.30;99.90
23746;DHT22;12053;48.878;9.632;2023-11-19T06:02:39;9.30;99.90
23746;DHT22;12053;48.878;9.632;2023-11-19T06:05:07;9.30;99.90
23746;DHT22;12053;48.878;9.632;2023-11-19T06:07:34;9.30;99.90
23746;DHT22;12053;48.878;9.632;2023-11-19T06:10:02;9.30;99.90
23746;DHT22;12053;48.878;9.632;2023-11-19T06:12:33;9.40;99.90
23746;DHT22;12053;48.878;9.632;2023-11-19T06:15:00;9.40;99.90
23746;DHT22;12053;48.878;9.632;2023-11-19T06:17:27;9.40;99.90
23746;DHT22;12053;48.878;9.632;2023-11-19T06:19:54;9.40;99.90
23746;DHT22;12053;48.878;9.632;2023-11-19T06:22:21;9.50;99.90
23746;DHT22;12053;48.878;9.632;2023-11-19T06:24:48;9.50;99.90
23746;DHT22;12053;48.878;9.632;2023-11-19T06:27:14;9.50;99.90
23746;DHT22;12053;48.878;9.632;2023-11-19T06:29:41;9.50;99.90
23746;DHT22;12053;48.878;9.632;2023-11-19T06:32:08;9.50;99.90
23746;DHT22;12053;48.878;9.632;2023-11-19T06:34:38;9.60;99.90
23746;DHT22;12053;48.878;9.632;2023-11-19T06:37:05;9.60;99.90
23746;DHT22;12053;48.878;9.632;2023-11-19T06:39:32;9.60;99.90
23746;DHT22;12053;48.878;9.632;2023-11-19T06:42:01;9.60;99.90
23746;DHT22;12053;48.878;9.632;2023-11-19T06:44:28;9.60;99.90
23746;DHT22;12053;48.878;9.632;2023-11-19T06:46:55;9.60;99.90
23746;DHT22;12053;48.878;9.632;2023-11-19T06:49:22;9.60;99.90
23746;DHT22;12053;48.878;9.632;2023-11-19T06:51:49;9.60;99.90
23746;DHT22;12053;48.878;9.632;2023-11-19T06:54:16;9.60;99.90
23746;DHT22;12053;48.878;9.632;2023-11-19T06:56:43;9.60;99.90
23746;DHT22;12053;48.878;9.632;2023-11-19T06:59:11;9.70;99.90
23746;DHT22;12053;48.878;9.632;2023-11-19T07:01:38;9.70;99.90
23746;DHT22;12053;48.878;9.632;2023-11-19T07:04:05;9.70;99.90
23746;DHT22;12053;48.878;9.632;2023-11-19T07:06:35;9.70;99.90
23746;DHT22;12053;48.878;9.632;2023-11-19T07:09:03;9.70;99.90
23746;DHT22;12053;48.878;9.632;2023-11-19T07:11:41;9.70;99.90
23746;DHT22;12053;48.878;9.632;2023-11-19T07:14:08;9.70;99.90
23746;DHT22;12053;48.878;9.632;2023-11-19T07:16:36;9.70;99.90
23746;DHT22;12053;48.878;9.632;2023-11-19T07:19:06;9.70;99.90
23746;DHT22;12053;48.878;9.632;2023-11-19T07:21:33;9.80;99.90
23746;DHT22;12053;48.878;9.632;2023-11-19T07:24:00;9.80;99.90
23746;DHT22;12053;48.878;9.632;2023-11-19T07:26:27;9.80;99.90
23746;DHT22;12053;48.878;9.632;2023-11-19T07:28:54;9.80;99.90
23746;DHT22;12053;48.878;9.632;2023-11-19T07:31:22;9.80;99.90
23746;DHT22;12053;48.878;9.632;2023-11-19T07:33:50;9.80;99.90
23746;DHT22;12053;48.878;9.632;2023-11-19T07:36:17;9.80;99.90
23746;DHT22;12053;48.878;9.632;2023-11-19T07:38:45;9.80;99.90
23746;DHT22;12053;48.878;9.632;2023-11-19T07:41:13;9.80;99.90
23746;DHT22;12053;48.878;9.632;2023-11-19T07:43:41;9.80;99.90
23746;DHT22;12053;48.878;9.632;2023-11-19T07:46:11;9.80;99.90
23746;DHT22;12053;48.878;9.632;2023-11-19T07:48:41;9.90;99.90
23746;DHT22;12053;48.878;9.632;2023-11-19T07:51:11;9.90;99.90
23746;DHT22;12053;48.878;9.632;2023-11-19T07:53:42;9.90;99.90
23746;DHT22;12053;48.878;9.632;2023-11-19T07:56:09;9.90;99.90
23746;DHT22;12053;48.878;9.632;2023-11-19T07:58:36;9.90;99.90
23746;DHT22;12053;48.878;9.632;2023-11-19T08:01:03;9.90;99.90
23746;DHT22;12053;48.878;9.632;2023-11-19T08:03:30;9.90;99.90
23746;DHT22;12053;48.878;9.632;2023-11-19T08:05:57;9.90;99.90
23746;DHT22;12053;48.878;9.632;2023-11-19T08:08:24;10.00;99.90
23746;DHT22;12053;48.878;9.632;2023-11-19T08:10:51;10.00;99.90
23746;DHT22;12053;48.878;9.632;2023-11-19T08:13:21;10.00;99.90
23746;DHT22;12053;48.878;9.632;2023-11-19T08:15:48;10.00;99.90
23746;DHT22;12053;48.878;9.632;2023-11-19T08:18:15;10.00;99.90
23746;DHT22;12053;48.878;9.632;2023-11-19T08:20:42;10.00;99.90
23746;DHT22;12053;48.878;9.632;2023-11-19T08:23:11;10.10;99.90
23746;DHT22;12053;48.878;9.632;2023-11-19T08:25:38;10.10;99.90
23746;DHT22;12053;48.878;9.632;2023-11-19T08:28:05;10.10;99.90
23746;DHT22;12053;48.878;9.632;2023-11-19T08:30:32;10.10;99.90
23746;DHT22;12053;48.878;9.632;2023-11-19T08:32:58;10.10;99.90
23746;DHT22;12053;48.878;9.632;2023-11-19T08:35:29;10.10;99.90
23746;DHT22;12053;48.878;9.632;2023-11-19T08:37:56;10.20;99.90
23746;DHT22;12053;48.878;9.632;2023-11-19T08:40:23;10.20;99.90
23746;DHT22;12053;48.878;9.632;2023-11-19T08:42:50;10.20;99.90
23746;DHT22;12053;48.878;9.632;2023-11-19T08:45:17;10.30;99.90
23746;DHT22;12053;48.878;9.632;2023-11-19T08:47:44;10.30;99.90
23746;DHT22;12053;48.878;9.632;2023-11-19T08:50:11;10.30;99.90
23746;DHT22;12053;48.878;9.632;2023-11-19T08:52:38;10.30;99.90
23746;DHT22;12053;48.878;9.632;2023-11-19T08:55:05;10.30;99.90
23746;DHT22;12053;48.878;9.632;2023-11-19T09:00:00;10.40;99.90
23746;DHT22;12053;48.878;9.632;2023-11-19T09:02:27;10.40;99.90
23746;DHT22;12053;48.878;9.632;2023-11-19T09:04:53;10.40;99.90
23746;DHT22;12053;48.878;9.632;2023-11-19T09:07:20;10.40;99.90
23746;DHT22;12053;48.878;9.632;2023-11-19T09:09:48;10.40;99.90
23746;DHT22;12053;48.878;9.632;2023-11-19T09:12:15;10.40;99.90
23746;DHT22;12053;48.878;9.632;2023-11-19T09:14:41;10.40;99.90
23746;DHT22;12053;48.878;9.632;2023-11-19T09:17:08;10.50;99.90
23746;DHT22;12053;48.878;9.632;2023-11-19T09:19:37;10.50;99.90
23746;DHT22;12053;48.878;9.632;2023-11-19T09:22:04;10.50;99.90
23746;DHT22;12053;48.878;9.632;2023-11-19T09:26:58;10.50;99.90
23746;DHT22;12053;48.878;9.632;2023-11-19T09:29:24;10.60;99.90
23746;DHT22;12053;48.878;9.632;2023-11-19T09:31:51;10.60;99.90
23746;DHT22;12053;48.878;9.632;2023-11-19T09:34:18;10.70;99.90
23746;DHT22;12053;48.878;9.632;2023-11-19T09:44:12;10.60;99.90
23746;DHT22;12053;48.878;9.632;2023-11-19T09:46:41;10.60;99.90
23746;DHT22;12053;48.878;9.632;2023-11-19T09:49:08;10.60;99.90
23746;DHT22;12053;48.878;9.632;2023-11-19T09:51:36;10.70;99.90
23746;DHT22;12053;48.878;9.632;2023-11-19T09:54:03;10.70;99.90
23746;DHT22;12053;48.878;9.632;2023-11-19T09:56:33;10.70;99.90
23746;DHT22;12053;48.878;9.632;2023-11-19T09:59:02;10.70;99.90
23746;DHT22;12053;48.878;9.632;2023-11-19T10:01:29;10.70;99.90
23746;DHT22;12053;48.878;9.632;2023-11-19T10:03:58;10.70;99.90
23746;DHT22;12053;48.878;9.632;2023-11-19T10:06:26;10.70;99.90
23746;DHT22;12053;48.878;9.632;2023-11-19T10:08:53;10.70;99.90
23746;DHT22;12053;48.878;9.632;2023-11-19T10:11:21;10.70;99.90
23746;DHT22;12053;48.878;9.632;2023-11-19T10:13:49;10.70;99.90
23746;DHT22;12053;48.878;9.632;2023-11-19T10:16:17;10.80;99.90
23746;DHT22;12053;48.878;9.632;2023-11-19T10:18:48;10.80;99.90
23746;DHT22;12053;48.878;9.632;2023-11-19T10:58:35;10.90;99.90
23746;DHT22;12053;48.878;9.632;2023-11-19T19:54:25;11.50;99.90
